sensor_id;sensor_type;location;lat;lon;timestamp;temperature;humidity
33699;DHT22;20032;52.436;13.312;2023-04-12T00:02:06;5.50;99.90
33699;DHT22;20032;52.436;13.312;2023-04-12T00:04:33;5.60;99.90
33699;DHT22;20032;52.436;13.312;2023-04-12T00:07:00;5.50;99.90
33699;DHT22;20032;52.436;13.312;2023-04-12T00:09:27;5.50;99.90
33699;DHT22;20032;52.436;13.312;2023-04-12T00:11:56;5.50;99.90
33699;DHT22;20032;52.436;13.312;2023-04-12T00:14:23;5.50;99.90
33699;DHT22;20032;52.436;13.312;2023-04-12T00:16:48;5.50;99.90
33699;DHT22;20032;52.436;13.312;2023-04-12T00:19:14;5.50;99.90
33699;DHT22;20032;52.436;13.312;2023-04-12T00:21:43;5.50;99.90
33699;DHT22;20032;52.436;13.312;2023-04-12T00:24:08;5.50;99.90
33699;DHT22;20032;52.436;13.312;2023-04-12T00:26:34;5.50;99.90
33699;DHT22;20032;52.436;13.312;2023-04-12T00:29:00;5.50;99.90
33699;DHT22;20032;52.436;13.312;2023-04-12T00:31:25;5.40;99.90
33699;DHT22;20032;52.436;13.312;2023-04-12T00:33:51;5.20;99.90
33699;DHT22;20032;52.436;13.312;2023-04-12T00:36:17;5.10;99.90
33699;DHT22;20032;52.436;13.312;2023-04-12T00:38:42;5.20;99.90
33699;DHT22;20032;52.436;13.312;2023-04-12T00:41:10;5.20;99.90
33699;DHT22;20032;52.436;13.312;2023-04-12T00:43:36;5.20;99.90
33699;DHT22;20032;52.436;13.312;2023-04-12T00:46:01;5.30;99.90
33699;DHT22;20032;52.436;13.312;2023-04-12T00:48:27;5.40;99.90
33699;DHT22;20032;52.436;13.312;2023-04-12T00:50:53;5.30;99.90
33699;DHT22;20032;52.436;13.312;2023-04-12T00:53:21;5.40;99.90
33699;DHT22;20032;52.436;13.312;2023-04-12T00:55:49;5.40;99.90
33699;DHT22;20032;52.436;13.312;2023-04-12T00:58:15;5.40;99.90
33699;DHT22;20032;52.436;13.312;2023-04-12T01:00:41;5.50;99.90
33699;DHT22;20032;52.436;13.312;2023-04-12T01:03:16;5.50;99.90
33699;DHT22;20032;52.436;13.312;2023-04-12T01:05:53;5.40;99.90
33699;DHT22;20032;52.436;13.312;2023-04-12T01:08:27;5.40;99.90
33699;DHT22;20032;52.436;13.312;2023-04-12T01:11:08;5.20;99.90
33699;DHT22;20032;52.436;13.312;2023-04-12T01:13:43;5.20;99.90
33699;DHT22;20032;52.436;13.312;2023-04-12T01:16:27;5.10;99.90
33699;DHT22;20032;52.436;13.312;2023-04-12T01:18:58;4.90;99.90
33699;DHT22;20032;52.436;13.312;2023-04-12T01:24:25;4.60;99.90
33699;DHT22;20032;52.436;13.312;2023-04-12T01:27:01;4.60;99.90
33699;DHT22;20032;52.436;13.312;2023-04-12T01:29:28;4.50;99.90
33699;DHT22;20032;52.436;13.312;2023-04-12T01:32:00;4.50;99.90
33699;DHT22;20032;52.436;13.312;2023-04-12T01:34:28;4.60;99.90
33699;DHT22;20032;52.436;13.312;2023-04-12T01:36:54;4.70;99.90
33699;DHT22;20032;52.436;13.312;2023-04-12T01:39:21;4.70;99.90
33699;DHT22;20032;52.436;13.312;2023-04-12T01:41:47;4.60;99.90
33699;DHT22;20032;52.436;13.312;2023-04-12T01:44:15;4.50;99.90
33699;DHT22;20032;52.436;13.312;2023-04-12T01:46:42;4.50;99.90
33699;DHT22;20032;52.436;13.312;2023-04-12T01:49:09;4.60;99.90
33699;DHT22;20032;52.436;13.312;2023-04-12T01:51:57;4.60;99.90
33699;DHT22;20032;52.436;13.312;2023-04-12T01:54:29;4.60;99.90
33699;DHT22;20032;52.436;13.312;2023-04-12T01:56:57;4.60;99.90
33699;DHT22;20032;52.436;13.312;2023-04-12T01:59:27;4.50;99.90
33699;DHT22;20032;52.436;13.312;2023-04-12T02:01:54;4.60;99.90
33699;DHT22;20032;52.436;13.312;2023-04-12T02:04:20;4.60;99.90
33699;DHT22;20032;52.436;13.312;2023-04-12T02:06:46;4.70;99.90
33699;DHT22;20032;52.436;13.312;2023-04-12T02:09:12;4.80;99.90
33699;DHT22;20032;52.436;13.312;2023-04-12T02:11:38;4.70;99.90
33699;DHT22;20032;52.436;13.312;2023-04-12T02:14:03;4.40;99.90
33699;DHT22;20032;52.436;13.312;2023-04-12T02:16:29;4.20;99.90
33699;DHT22;20032;52.436;13.312;2023-04-12T02:18:56;4.10;99.90
33699;DHT22;20032;52.436;13.312;2023-04-12T02:21:23;4.10;99.90
33699;DHT22;20032;52.436;13.312;2023-04-12T02:23:49;4.00;99.90
33699;DHT22;20032;52.436;13.312;2023-04-12T02:26:15;4.20;99.90
33699;DHT22;20032;52.436;13.312;2023-04-12T02:28:43;4.20;99.90
33699;DHT22;20032;52.436;13.312;2023-04-12T02:31:08;4.10;99.90
33699;DHT22;20032;52.436;13.312;2023-04-12T02:33:34;4.00;99.90
33699;DHT22;20032;52.436;13.312;2023-04-12T02:36:00;3.90;99.90
33699;DHT22;20032;52.436;13.312;2023-04-12T02:38:27;3.70;99.90
33699;DHT22;20032;52.436;13.312;2023-04-12T02:40:53;3.70;99.90
33699;DHT22;20032;52.436;13.312;2023-04-12T02:43:18;3.70;99.90
33699;DHT22;20032;52.436;13.312;2023-04-12T02:45:45;3.60;99.90
33699;DHT22;20032;52.436;13.312;2023-04-12T02:48:11;3.60;99.90
33699;DHT22;20032;52.436;13.312;2023-04-12T02:50:37;3.60;99.90
33699;DHT22;20032;52.436;13.312;2023-04-12T02:53:03;3.60;99.90
33699;DHT22;20032;52.436;13.312;2023-04-12T02:55:28;3.50;99.90
33699;DHT22;20032;52.436;13.312;2023-04-12T02:57:55;3.50;99.90
33699;DHT22;20032;52.436;13.312;2023-04-12T03:00:21;3.40;99.90
33699;DHT22;20032;52.436;13.312;2023-04-12T03:02:47;3.40;99.90
33699;DHT22;20032;52.436;13.312;2023-04-12T03:05:15;3.40;99.90
33699;DHT22;20032;52.436;13.312;2023-04-12T03:07:42;3.40;99.90
33699;DHT22;20032;52.436;13.312;2023-04-12T03:10:08;3.40;99.90
33699;DHT22;20032;52.436;13.312;2023-04-12T03:12:35;3.30;99.90
33699;DHT22;20032;52.436;13.312;2023-04-12T03:15:01;3.20;99.90
33699;DHT22;20032;52.436;13.312;2023-04-12T03:17:26;3.20;99.90
33699;DHT22;20032;52.436;13.312;2023-04-12T03:19:52;3.20;99.90
33699;DHT22;20032;52.436;13.312;2023-04-12T03:22:17;3.20;99.90
33699;DHT22;20032;52.436;13.312;2023-04-12T03:24:44;3.20;99.90
33699;DHT22;20032;52.436;13.312;2023-04-12T03:27:10;3.30;99.90
33699;DHT22;20032;52.436;13.312;2023-04-12T03:29:36;3.30;99.90
33699;DHT22;20032;52.436;13.312;2023-04-12T03:32:01;3.50;99.90
33699;DHT22;20032;52.436;13.312;2023-04-12T03:34:27;3.30;99.90
33699;DHT22;20032;52.436;13.312;2023-04-12T03:37:00;3.30;99.90
33699;DHT22;20032;52.436;13.312;2023-04-12T03:39:26;3.30;99.90
33699;DHT22;20032;52.436;13.312;2023-04-12T03:41:53;3.40;99.90
33699;DHT22;20032;52.436;13.312;2023-04-12T03:44:19;3.40;99.90
33699;DHT22;20032;52.436;13.312;2023-04-12T03:46:46;3.30;99.90
33699;DHT22;20032;52.436;13.312;2023-04-12T03:49:11;3.30;99.90
33699;DHT22;20032;52.436;13.312;2023-04-12T03:51:38;3.30;99.90
33699;DHT22;20032;52.436;13.312;2023-04-12T03:54:08;3.20;99.90
33699;DHT22;20032;52.436;13.312;2023-04-12T03:56:34;3.10;99.90
33699;DHT22;20032;52.436;13.312;2023-04-12T03:58:59;3.10;99.90
33699;DHT22;20032;52.436;13.312;2023-04-12T04:01:25;3.10;99.90
33699;DHT22;20032;52.436;13.312;2023-04-12T04:03:50;3.10;99.90
33699;DHT22;20032;52.436;13.312;2023-04-12T04:06:16;3.10;99.90
33699;DHT22;20032;52.436;13.312;2023-04-12T04:08:42;3.10;99.90
33699;DHT22;20032;52.436;13.312;2023-04-12T04:11:10;3.00;99.90
33699;DHT22;20032;52.436;13.312;2023-04-12T04:13:36;3.00;99.90
33699;DHT22;20032;52.436;13.312;2023-04-12T04:16:04;2.90;99.90
33699;DHT22;20032;52.436;13.312;2023-04-12T04:18:30;2.90;99.90
33699;DHT22;20032;52.436;13.312;2023-04-12T04:20:57;3.10;99.90
33699;DHT22;20032;52.436;13.312;2023-04-12T04:23:23;3.20;99.90
33699;DHT22;20032;52.436;13.312;2023-04-12T04:25:48;3.30;99.90
33699;DHT22;20032;52.436;13.312;2023-04-12T04:28:15;3.20;99.90
33699;DHT22;20032;52.436;13.312;2023-04-12T04:30:41;3.20;99.90
33699;DHT22;20032;52.436;13.312;2023-04-12T04:33:10;3.20;99.90
33699;DHT22;20032;52.436;13.312;2023-04-12T04:35:38;3.30;99.90
33699;DHT22;20032;52.436;13.312;2023-04-12T04:38:04;3.30;99.90
33699;DHT22;20032;52.436;13.312;2023-04-12T04:40:31;3.30;99.90
33699;DHT22;20032;52.436;13.312;2023-04-12T04:42:56;3.20;99.90
33699;DHT22;20032;52.436;13.312;2023-04-12T04:45:24;3.30;99.90
33699;DHT22;20032;52.436;13.312;2023-04-12T04:47:52;3.30;99.90
33699;DHT22;20032;52.436;13.312;2023-04-12T04:50:19;3.20;99.90
33699;DHT22;20032;52.436;13.312;2023-04-12T04:52:46;3.30;99.90
33699;DHT22;20032;52.436;13.312;2023-04-12T04:55:13;3.30;99.90
33699;DHT22;20032;52.436;13.312;2023-04-12T04:57:39;3.30;99.90
33699;DHT22;20032;52.436;13.312;2023-04-12T05:00:06;3.20;99.90
33699;DHT22;20032;52.436;13.312;2023-04-12T05:02:37;3.20;99.90
33699;DHT22;20032;52.436;13.312;2023-04-12T05:05:05;3.20;99.90
33699;DHT22;20032;52.436;13.312;2023-04-12T05:07:31;3.20;99.90
33699;DHT22;20032;52.436;13.312;2023-04-12T05:09:56;3.20;99.90
33699;DHT22;20032;52.436;13.312;2023-04-12T05:12:22;3.30;99.90
33699;DHT22;20032;52.436;13.312;2023-04-12T05:14:47;3.30;99.90
33699;DHT22;20032;52.436;13.312;2023-04-12T05:17:13;3.30;99.90
33699;DHT22;20032;52.436;13.312;2023-04-12T05:19:39;3.40;99.90
33699;DHT22;20032;52.436;13.312;2023-04-12T05:22:05;3.40;99.90
33699;DHT22;20032;52.436;13.312;2023-04-12T05:24:31;3.50;99.90
33699;DHT22;20032;52.436;13.312;2023-04-12T05:26:56;3.70;99.90
33699;DHT22;20032;52.436;13.312;2023-04-12T05:29:23;3.70;99.90
33699;DHT22;20032;52.436;13.312;2023-04-12T05:31:48;3.80;99.90
33699;DHT22;20032;52.436;13.312;2023-04-12T05:34:14;3.70;99.90
33699;DHT22;20032;52.436;13.312;2023-04-12T05:36:39;3.80;99.90
33699;DHT22;20032;52.436;13.312;2023-04-12T05:39:05;3.90;99.90
33699;DHT22;20032;52.436;13.312;2023-04-12T05:41:31;4.00;99.90
33699;DHT22;20032;52.436;13.312;2023-04-12T05:43:56;4.10;99.90
33699;DHT22;20032;52.436;13.312;2023-04-12T05:46:24;4.30;99.90
33699;DHT22;20032;52.436;13.312;2023-04-12T05:48:49;4.40;99.90
33699;DHT22;20032;52.436;13.312;2023-04-12T05:51:15;4.50;99.90
33699;DHT22;20032;52.436;13.312;2023-04-12T05:53:41;4.60;99.90
33699;DHT22;20032;52.436;13.312;2023-04-12T05:56:07;4.80;99.90
33699;DHT22;20032;52.436;13.312;2023-04-12T05:58:33;4.70;99.90
33699;DHT22;20032;52.436;13.312;2023-04-12T06:01:00;4.80;99.90
33699;DHT22;20032;52.436;13.312;2023-04-12T06:03:25;5.00;99.90
33699;DHT22;20032;52.436;13.312;2023-04-12T06:05:54;5.10;99.90
33699;DHT22;20032;52.436;13.312;2023-04-12T06:08:19;5.20;99.90
33699;DHT22;20032;52.436;13.312;2023-04-12T06:10:45;5.20;99.90
33699;DHT22;20032;52.436;13.312;2023-04-12T06:13:10;5.20;99.90
33699;DHT22;20032;52.436;13.312;2023-04-12T06:15:36;5.30;99.90
33699;DHT22;20032;52.436;13.312;2023-04-12T06:18:02;5.40;99.90
33699;DHT22;20032;52.436;13.312;2023-04-12T06:20:27;5.50;99.90
33699;DHT22;20032;52.436;13.312;2023-04-12T06:22:53;5.60;99.90
33699;DHT22;20032;52.436;13.312;2023-04-12T06:25:18;5.80;99.90
33699;DHT22;20032;52.436;13.312;2023-04-12T06:27:44;6.00;99.90
33699;DHT22;20032;52.436;13.312;2023-04-12T06:30:10;6.00;99.90
33699;DHT22;20032;52.436;13.312;2023-04-12T06:32:37;6.20;99.90
33699;DHT22;20032;52.436;13.312;2023-04-12T06:35:04;6.30;99.90
33699;DHT22;20032;52.436;13.312;2023-04-12T06:37:30;6.50;99.90
33699;DHT22;20032;52.436;13.312;2023-04-12T06:39:55;6.60;99.90
33699;DHT22;20032;52.436;13.312;2023-04-12T06:42:21;6.80;99.90
33699;DHT22;20032;52.436;13.312;2023-04-12T06:44:46;6.90;99.90
33699;DHT22;20032;52.436;13.312;2023-04-12T06:47:12;7.00;99.90
33699;DHT22;20032;52.436;13.312;2023-04-12T06:49:37;7.10;99.90
33699;DHT22;20032;52.436;13.312;2023-04-12T06:52:03;7.30;99.90
33699;DHT22;20032;52.436;13.312;2023-04-12T06:54:29;7.40;99.90
33699;DHT22;20032;52.436;13.312;2023-04-12T06:56:54;7.50;99.90
33699;DHT22;20032;52.436;13.312;2023-04-12T06:59:21;7.50;99.90
33699;DHT22;20032;52.436;13.312;2023-04-12T07:01:47;7.70;99.90
33699;DHT22;20032;52.436;13.312;2023-04-12T07:04:12;7.90;99.90
33699;DHT22;20032;52.436;13.312;2023-04-12T07:06:38;8.00;99.90
33699;DHT22;20032;52.436;13.312;2023-04-12T07:09:03;8.00;99.90
33699;DHT22;20032;52.436;13.312;2023-04-12T07:11:29;7.90;99.90
33699;DHT22;20032;52.436;13.312;2023-04-12T07:13:56;7.90;99.90
33699;DHT22;20032;52.436;13.312;2023-04-12T07:16:23;7.90;99.90
33699;DHT22;20032;52.436;13.312;2023-04-12T07:18:49;8.00;99.90
33699;DHT22;20032;52.436;13.312;2023-04-12T07:21:15;8.00;99.90
33699;DHT22;20032;52.436;13.312;2023-04-12T07:23:42;8.10;99.90
33699;DHT22;20032;52.436;13.312;2023-04-12T07:26:07;8.30;99.90
33699;DHT22;20032;52.436;13.312;2023-04-12T07:28:33;8.30;99.90
33699;DHT22;20032;52.436;13.312;2023-04-12T07:31:03;8.50;99.90
33699;DHT22;20032;52.436;13.312;2023-04-12T07:33:29;8.60;99.90
33699;DHT22;20032;52.436;13.312;2023-04-12T07:35:54;8.80;99.90
33699;DHT22;20032;52.436;13.312;2023-04-12T07:38:20;8.70;99.90
33699;DHT22;20032;52.436;13.312;2023-04-12T07:40:46;8.70;99.90
33699;DHT22;20032;52.436;13.312;2023-04-12T07:43:11;8.80;99.90
33699;DHT22;20032;52.436;13.312;2023-04-12T07:45:37;8.80;99.90
33699;DHT22;20032;52.436;13.312;2023-04-12T07:48:02;9.00;99.90
33699;DHT22;20032;52.436;13.312;2023-04-12T07:50:28;9.30;99.90
33699;DHT22;20032;52.436;13.312;2023-04-12T07:53:10;9.30;99.90
33699;DHT22;20032;52.436;13.312;2023-04-12T07:55:41;9.40;99.90
33699;DHT22;20032;52.436;13.312;2023-04-12T07:58:06;9.60;99.90
33699;DHT22;20032;52.436;13.312;2023-04-12T08:00:32;9.80;99.90
33699;DHT22;20032;52.436;13.312;2023-04-12T08:02:58;9.80;99.90
33699;DHT22;20032;52.436;13.312;2023-04-12T08:05:24;10.00;99.90
33699;DHT22;20032;52.436;13.312;2023-04-12T08:07:49;10.00;99.90
33699;DHT22;20032;52.436;13.312;2023-04-12T08:10:15;10.20;99.90
33699;DHT22;20032;52.436;13.312;2023-04-12T08:12:40;10.10;99.90
33699;DHT22;20032;52.436;13.312;2023-04-12T08:15:06;10.20;99.90
33699;DHT22;20032;52.436;13.312;2023-04-12T08:17:32;10.30;99.90
33699;DHT22;20032;52.436;13.312;2023-04-12T08:19:57;10.50;99.90
33699;DHT22;20032;52.436;13.312;2023-04-12T08:22:23;10.60;99.90
33699;DHT22;20032;52.436;13.312;2023-04-12T08:24:48;10.70;99.90
33699;DHT22;20032;52.436;13.312;2023-04-12T08:27:14;10.70;99.90
33699;DHT22;20032;52.436;13.312;2023-04-12T08:29:40;10.70;99.90
33699;DHT22;20032;52.436;13.312;2023-04-12T08:32:06;10.80;99.90
33699;DHT22;20032;52.436;13.312;2023-04-12T08:34:34;11.00;99.90
33699;DHT22;20032;52.436;13.312;2023-04-12T08:36:59;11.00;99.90
33699;DHT22;20032;52.436;13.312;2023-04-12T08:39:25;11.20;99.90
33699;DHT22;20032;52.436;13.312;2023-04-12T08:41:52;11.20;99.90
33699;DHT22;20032;52.436;13.312;2023-04-12T08:44:19;11.30;99.90
33699;DHT22;20032;52.436;13.312;2023-04-12T08:46:51;11.30;99.90
33699;DHT22;20032;52.436;13.312;2023-04-12T08:49:16;11.50;99.90
33699;DHT22;20032;52.436;13.312;2023-04-12T08:51:43;11.50;99.90
33699;DHT22;20032;52.436;13.312;2023-04-12T08:54:09;11.60;99.90
33699;DHT22;20032;52.436;13.312;2023-04-12T08:56:35;11.70;99.90
33699;DHT22;20032;52.436;13.312;2023-04-12T08:59:01;11.80;99.90
33699;DHT22;20032;52.436;13.312;2023-04-12T09:01:27;11.80;99.90
33699;DHT22;20032;52.436;13.312;2023-04-12T09:03:52;11.90;99.90
33699;DHT22;20032;52.436;13.312;2023-04-12T09:06:18;12.00;99.90
33699;DHT22;20032;52.436;13.312;2023-04-12T09:08:52;12.10;99.90
33699;DHT22;20032;52.436;13.312;2023-04-12T09:11:23;12.20;99.90
33699;DHT22;20032;52.436;13.312;2023-04-12T09:13:51;12.20;99.90
33699;DHT22;20032;52.436;13.312;2023-04-12T09:16:16;12.50;99.90
33699;DHT22;20032;52.436;13.312;2023-04-12T09:18:48;12.50;99.90
33699;DHT22;20032;52.436;13.312;2023-04-12T09:21:14;12.80;99.90
33699;DHT22;20032;52.436;13.312;2023-04-12T09:23:40;12.90;99.90
33699;DHT22;20032;52.436;13.312;2023-04-12T09:26:06;13.10;99.90
33699;DHT22;20032;52.436;13.312;2023-04-12T09:28:32;13.00;99.90
33699;DHT22;20032;52.436;13.312;2023-04-12T09:30:59;13.00;99.80
33699;DHT22;20032;52.436;13.312;2023-04-12T09:33:35;13.00;99.70
33699;DHT22;20032;52.436;13.312;2023-04-12T09:36:04;13.00;99.90
33699;DHT22;20032;52.436;13.312;2023-04-12T09:38:31;13.40;99.30
33699;DHT22;20032;52.436;13.312;2023-04-12T09:40:57;13.70;99.00
33699;DHT22;20032;52.436;13.312;2023-04-12T09:43:41;13.80;96.70
33699;DHT22;20032;52.436;13.312;2023-04-12T09:46:12;13.90;96.50
33699;DHT22;20032;52.436;13.312;2023-04-12T09:48:39;14.10;95.70
33699;DHT22;20032;52.436;13.312;2023-04-12T09:51:05;14.20;95.20
33699;DHT22;20032;52.436;13.312;2023-04-12T09:53:33;14.30;94.90
33699;DHT22;20032;52.436;13.312;2023-04-12T09:56:02;14.50;94.70
33699;DHT22;20032;52.436;13.312;2023-04-12T09:58:28;14.70;94.50
33699;DHT22;20032;52.436;13.312;2023-04-12T10:00:55;14.80;94.40
33699;DHT22;20032;52.436;13.312;2023-04-12T10:03:24;14.70;94.10
33699;DHT22;20032;52.436;13.312;2023-04-12T10:05:50;14.60;93.60
33699;DHT22;20032;52.436;13.312;2023-04-12T10:08:16;14.80;93.30
33699;DHT22;20032;52.436;13.312;2023-04-12T10:10:43;15.00;92.80
33699;DHT22;20032;52.436;13.312;2023-04-12T10:13:11;15.40;92.50
33699;DHT22;20032;52.436;13.312;2023-04-12T10:15:37;15.70;91.00
33699;DHT22;20032;52.436;13.312;2023-04-12T10:18:03;15.80;91.20
33699;DHT22;20032;52.436;13.312;2023-04-12T10:20:31;15.60;90.60
33699;DHT22;20032;52.436;13.312;2023-04-12T10:22:57;15.50;90.40
33699;DHT22;20032;52.436;13.312;2023-04-12T10:25:25;15.70;90.40
33699;DHT22;20032;52.436;13.312;2023-04-12T10:27:51;15.70;91.40
33699;DHT22;20032;52.436;13.312;2023-04-12T10:30:19;15.90;90.50
33699;DHT22;20032;52.436;13.312;2023-04-12T10:32:45;16.20;90.00
33699;DHT22;20032;52.436;13.312;2023-04-12T10:35:10;16.20;89.50
33699;DHT22;20032;52.436;13.312;2023-04-12T10:37:57;16.30;88.20
33699;DHT22;20032;52.436;13.312;2023-04-12T10:40:24;16.40;86.60
33699;DHT22;20032;52.436;13.312;2023-04-12T10:43:25;16.50;86.80
33699;DHT22;20032;52.436;13.312;2023-04-12T10:45:51;16.60;87.30
33699;DHT22;20032;52.436;13.312;2023-04-12T10:48:35;17.00;85.70
33699;DHT22;20032;52.436;13.312;2023-04-12T10:51:22;16.40;86.40
33699;DHT22;20032;52.436;13.312;2023-04-12T10:53:50;16.80;86.00
33699;DHT22;20032;52.436;13.312;2023-04-12T10:56:34;17.30;85.70
33699;DHT22;20032;52.436;13.312;2023-04-12T10:59:02;17.60;84.50
33699;DHT22;20032;52.436;13.312;2023-04-12T11:01:28;17.20;83.40
33699;DHT22;20032;52.436;13.312;2023-04-12T11:06:44;17.60;82.90
33699;DHT22;20032;52.436;13.312;2023-04-12T11:09:28;17.20;83.20
33699;DHT22;20032;52.436;13.312;2023-04-12T11:12:09;17.50;81.40
33699;DHT22;20032;52.436;13.312;2023-04-12T11:14:41;17.20;80.60
33699;DHT22;20032;52.436;13.312;2023-04-12T11:19:38;17.20;80.60
33699;DHT22;20032;52.436;13.312;2023-04-12T11:22:05;17.60;81.70
33699;DHT22;20032;52.436;13.312;2023-04-12T11:24:31;17.90;79.20
33699;DHT22;20032;52.436;13.312;2023-04-12T11:26:57;18.10;79.40
33699;DHT22;20032;52.436;13.312;2023-04-12T11:29:24;18.10;78.90
33699;DHT22;20032;52.436;13.312;2023-04-12T11:31:50;18.60;78.90
33699;DHT22;20032;52.436;13.312;2023-04-12T11:34:17;18.60;75.40
33699;DHT22;20032;52.436;13.312;2023-04-12T11:36:44;18.20;74.90
33699;DHT22;20032;52.436;13.312;2023-04-12T11:39:10;18.50;74.30
33699;DHT22;20032;52.436;13.312;2023-04-12T11:41:36;18.40;75.30
33699;DHT22;20032;52.436;13.312;2023-04-12T11:44:02;18.60;75.70
33699;DHT22;20032;52.436;13.312;2023-04-12T11:46:35;19.10;73.90
33699;DHT22;20032;52.436;13.312;2023-04-12T11:49:01;18.90;72.80
33699;DHT22;20032;52.436;13.312;2023-04-12T11:51:26;19.00;73.70
33699;DHT22;20032;52.436;13.312;2023-04-12T11:53:54;19.00;71.80
33699;DHT22;20032;52.436;13.312;2023-04-12T11:56:21;18.20;72.80
33699;DHT22;20032;52.436;13.312;2023-04-12T11:58:47;18.00;74.80
33699;DHT22;20032;52.436;13.312;2023-04-12T12:01:15;18.40;73.80
33699;DHT22;20032;52.436;13.312;2023-04-12T12:03:41;18.40;72.60
33699;DHT22;20032;52.436;13.312;2023-04-12T12:06:08;17.50;74.50
33699;DHT22;20032;52.436;13.312;2023-04-12T12:08:34;17.40;75.00
33699;DHT22;20032;52.436;13.312;2023-04-12T12:11:00;17.30;75.80
33699;DHT22;20032;52.436;13.312;2023-04-12T12:13:25;17.20;76.80
33699;DHT22;20032;52.436;13.312;2023-04-12T12:15:51;17.20;75.50
33699;DHT22;20032;52.436;13.312;2023-04-12T12:18:17;17.10;76.30
33699;DHT22;20032;52.436;13.312;2023-04-12T12:20:50;17.10;76.70
33699;DHT22;20032;52.436;13.312;2023-04-12T12:23:32;17.40;77.20
33699;DHT22;20032;52.436;13.312;2023-04-12T12:25:59;17.50;74.20
33699;DHT22;20032;52.436;13.312;2023-04-12T12:28:25;17.10;75.00
33699;DHT22;20032;52.436;13.312;2023-04-12T12:30:54;17.20;76.20
33699;DHT22;20032;52.436;13.312;2023-04-12T12:33:20;17.30;76.00
33699;DHT22;20032;52.436;13.312;2023-04-12T12:35:46;17.10;76.40
33699;DHT22;20032;52.436;13.312;2023-04-12T12:38:12;17.00;76.50
33699;DHT22;20032;52.436;13.312;2023-04-12T12:40:38;16.70;76.80
33699;DHT22;20032;52.436;13.312;2023-04-12T12:43:04;16.50;77.10
33699;DHT22;20032;52.436;13.312;2023-04-12T12:45:32;16.50;78.20
33699;DHT22;20032;52.436;13.312;2023-04-12T12:48:00;16.50;78.10
33699;DHT22;20032;52.436;13.312;2023-04-12T12:50:29;16.40;77.90
33699;DHT22;20032;52.436;13.312;2023-04-12T12:52:56;16.50;78.80
33699;DHT22;20032;52.436;13.312;2023-04-12T12:55:23;16.50;77.80
33699;DHT22;20032;52.436;13.312;2023-04-12T12:57:51;16.50;77.60
33699;DHT22;20032;52.436;13.312;2023-04-12T13:00:18;16.20;78.20
33699;DHT22;20032;52.436;13.312;2023-04-12T13:02:44;16.30;79.90
33699;DHT22;20032;52.436;13.312;2023-04-12T13:05:10;16.50;78.90
33699;DHT22;20032;52.436;13.312;2023-04-12T13:07:36;16.80;78.30
33699;DHT22;20032;52.436;13.312;2023-04-12T13:10:04;17.20;77.50
33699;DHT22;20032;52.436;13.312;2023-04-12T13:12:30;17.60;77.50
33699;DHT22;20032;52.436;13.312;2023-04-12T13:14:56;17.70;77.60
33699;DHT22;20032;52.436;13.312;2023-04-12T13:17:22;17.50;75.80
33699;DHT22;20032;52.436;13.312;2023-04-12T13:19:48;17.20;75.80
33699;DHT22;20032;52.436;13.312;2023-04-12T13:22:14;17.00;76.80
33699;DHT22;20032;52.436;13.312;2023-04-12T13:24:40;17.00;77.30
33699;DHT22;20032;52.436;13.312;2023-04-12T13:27:06;17.00;78.50
33699;DHT22;20032;52.436;13.312;2023-04-12T13:29:32;16.90;78.50
33699;DHT22;20032;52.436;13.312;2023-04-12T13:31:58;16.70;78.20
33699;DHT22;20032;52.436;13.312;2023-04-12T13:34:23;16.50;79.10
33699;DHT22;20032;52.436;13.312;2023-04-12T13:36:49;16.50;79.50
33699;DHT22;20032;52.436;13.312;2023-04-12T13:39:14;16.60;79.40
33699;DHT22;20032;52.436;13.312;2023-04-12T13:41:40;16.70;79.70
33699;DHT22;20032;52.436;13.312;2023-04-12T13:44:05;16.60;80.40
33699;DHT22;20032;52.436;13.312;2023-04-12T13:46:31;16.50;81.10
33699;DHT22;20032;52.436;13.312;2023-04-12T13:48:56;16.30;80.40
33699;DHT22;20032;52.436;13.312;2023-04-12T13:51:22;16.10;80.50
33699;DHT22;20032;52.436;13.312;2023-04-12T13:53:48;16.20;81.20
33699;DHT22;20032;52.436;13.312;2023-04-12T13:56:13;16.00;80.60
33699;DHT22;20032;52.436;13.312;2023-04-12T13:58:40;15.90;81.40
33699;DHT22;20032;52.436;13.312;2023-04-12T14:01:07;15.90;81.80
33699;DHT22;20032;52.436;13.312;2023-04-12T14:03:33;15.90;81.60
33699;DHT22;20032;52.436;13.312;2023-04-12T14:05:59;15.90;82.40
33699;DHT22;20032;52.436;13.312;2023-04-12T14:08:25;15.70;81.90
33699;DHT22;20032;52.436;13.312;2023-04-12T14:10:52;15.60;81.10
33699;DHT22;20032;52.436;13.312;2023-04-12T14:13:22;15.50;81.50
33699;DHT22;20032;52.436;13.312;2023-04-12T14:15:49;15.40;81.70
33699;DHT22;20032;52.436;13.312;2023-04-12T14:18:15;15.40;82.80
33699;DHT22;20032;52.436;13.312;2023-04-12T14:20:41;15.30;83.10
33699;DHT22;20032;52.436;13.312;2023-04-12T14:23:07;15.40;83.20
33699;DHT22;20032;52.436;13.312;2023-04-12T14:25:35;15.30;83.30
33699;DHT22;20032;52.436;13.312;2023-04-12T14:28:01;15.20;84.30
33699;DHT22;20032;52.436;13.312;2023-04-12T14:30:27;15.20;85.10
33699;DHT22;20032;52.436;13.312;2023-04-12T14:32:53;15.10;85.90
33699;DHT22;20032;52.436;13.312;2023-04-12T14:35:18;15.00;85.40
33699;DHT22;20032;52.436;13.312;2023-04-12T14:37:45;14.90;86.90
33699;DHT22;20032;52.436;13.312;2023-04-12T14:40:11;14.90;86.60
33699;DHT22;20032;52.436;13.312;2023-04-12T14:42:36;14.80;87.10
33699;DHT22;20032;52.436;13.312;2023-04-12T14:45:02;14.90;88.30
33699;DHT22;20032;52.436;13.312;2023-04-12T14:47:29;14.90;89.80
33699;DHT22;20032;52.436;13.312;2023-04-12T14:49:55;14.70;89.80
33699;DHT22;20032;52.436;13.312;2023-04-12T14:52:20;14.60;90.10
33699;DHT22;20032;52.436;13.312;2023-04-12T14:54:46;14.50;90.50
33699;DHT22;20032;52.436;13.312;2023-04-12T14:57:11;14.50;91.00
33699;DHT22;20032;52.436;13.312;2023-04-12T14:59:37;14.40;91.70
33699;DHT22;20032;52.436;13.312;2023-04-12T15:02:02;14.50;92.80
33699;DHT22;20032;52.436;13.312;2023-04-12T15:04:28;14.30;94.00
33699;DHT22;20032;52.436;13.312;2023-04-12T15:06:54;14.10;95.20
33699;DHT22;20032;52.436;13.312;2023-04-12T15:09:19;13.90;96.30
33699;DHT22;20032;52.436;13.312;2023-04-12T15:11:48;13.60;97.90
33699;DHT22;20032;52.436;13.312;2023-04-12T15:14:14;13.40;99.30
33699;DHT22;20032;52.436;13.312;2023-04-12T15:16:42;13.20;99.90
33699;DHT22;20032;52.436;13.312;2023-04-12T15:19:08;12.90;99.90
33699;DHT22;20032;52.436;13.312;2023-04-12T15:21:33;12.90;99.90
33699;DHT22;20032;52.436;13.312;2023-04-12T15:23:58;12.80;99.90
33699;DHT22;20032;52.436;13.312;2023-04-12T15:26:24;12.70;99.90
33699;DHT22;20032;52.436;13.312;2023-04-12T15:28:49;12.60;99.90
33699;DHT22;20032;52.436;13.312;2023-04-12T15:31:15;12.60;99.90